sensor_id;sensor_type;location;lat;lon;timestamp;P1;durP1;ratioP1;P2;durP2;ratioP2
29958;SDS011;16815;51.100;6.516;2022-12-29T00:00:08;1.20;;;0.67;;
29958;SDS011;16815;51.100;6.516;2022-12-29T00:02:34;0.70;;;0.70;;
29958;SDS011;16815;51.100;6.516;2022-12-29T00:05:00;0.70;;;0.70;;
29958;SDS011;16815;51.100;6.516;2022-12-29T00:07:26;0.80;;;0.80;;
29958;SDS011;16815;51.100;6.516;2022-12-29T00:09:52;1.33;;;0.70;;
29958;SDS011;16815;51.100;6.516;2022-12-29T00:12:18;1.50;;;0.80;;
29958;SDS011;16815;51.100;6.516;2022-12-29T00:14:43;0.80;;;0.80;;
29958;SDS011;16815;51.100;6.516;2022-12-29T00:17:28;0.63;;;0.63;;
29958;SDS011;16815;51.100;6.516;2022-12-29T00:19:55;0.60;;;0.60;;
29958;SDS011;16815;51.100;6.516;2022-12-29T00:22:39;1.73;;;0.90;;
29958;SDS011;16815;51.100;6.516;2022-12-29T00:25:23;0.70;;;0.70;;
29958;SDS011;16815;51.100;6.516;2022-12-29T00:28:08;0.93;;;0.70;;
29958;SDS011;16815;51.100;6.516;2022-12-29T00:30:53;4.20;;;1.10;;
29958;SDS011;16815;51.100;6.516;2022-12-29T00:33:38;0.97;;;0.80;;
29958;SDS011;16815;51.100;6.516;2022-12-29T00:36:27;1.67;;;1.00;;
29958;SDS011;16815;51.100;6.516;2022-12-29T00:38:57;1.00;;;0.80;;
29958;SDS011;16815;51.100;6.516;2022-12-29T00:41:44;1.60;;;0.70;;
29958;SDS011;16815;51.100;6.516;2022-12-29T00:44:28;1.50;;;0.90;;
29958;SDS011;16815;51.100;6.516;2022-12-29T00:46:54;3.20;;;0.90;;
29958;SDS011;16815;51.100;6.516;2022-12-29T00:49:20;0.70;;;0.70;;
29958;SDS011;16815;51.100;6.516;2022-12-29T00:51:55;2.20;;;0.70;;
29958;SDS011;16815;51.100;6.516;2022-12-29T00:54:22;1.33;;;0.70;;
29958;SDS011;16815;51.100;6.516;2022-12-29T00:56:48;0.80;;;0.80;;
29958;SDS011;16815;51.100;6.516;2022-12-29T00:59:14;0.73;;;0.60;;
29958;SDS011;16815;51.100;6.516;2022-12-29T01:01:41;0.60;;;0.60;;
29958;SDS011;16815;51.100;6.516;2022-12-29T01:04:07;0.60;;;0.60;;
29958;SDS011;16815;51.100;6.516;2022-12-29T01:06:33;1.00;;;0.90;;
29958;SDS011;16815;51.100;6.516;2022-12-29T01:08:59;1.27;;;0.70;;
29958;SDS011;16815;51.100;6.516;2022-12-29T01:11:44;1.00;;;0.73;;
29958;SDS011;16815;51.100;6.516;2022-12-29T01:14:10;2.23;;;0.63;;
29958;SDS011;16815;51.100;6.516;2022-12-29T01:16:36;0.70;;;0.70;;
29958;SDS011;16815;51.100;6.516;2022-12-29T01:19:02;1.43;;;0.73;;
29958;SDS011;16815;51.100;6.516;2022-12-29T01:21:28;0.73;;;0.73;;
29958;SDS011;16815;51.100;6.516;2022-12-29T01:23:54;1.40;;;0.93;;
29958;SDS011;16815;51.100;6.516;2022-12-29T01:26:20;0.70;;;0.70;;
29958;SDS011;16815;51.100;6.516;2022-12-29T01:28:46;1.33;;;0.70;;
29958;SDS011;16815;51.100;6.516;2022-12-29T01:31:13;0.87;;;0.70;;
29958;SDS011;16815;51.100;6.516;2022-12-29T01:33:39;1.63;;;1.10;;
29958;SDS011;16815;51.100;6.516;2022-12-29T01:36:06;3.53;;;0.90;;
29958;SDS011;16815;51.100;6.516;2022-12-29T01:38:32;0.87;;;0.70;;
29958;SDS011;16815;51.100;6.516;2022-12-29T01:40:58;0.90;;;0.90;;
29958;SDS011;16815;51.100;6.516;2022-12-29T01:46:28;0.93;;;0.93;;
29958;SDS011;16815;51.100;6.516;2022-12-29T01:49:04;1.13;;;0.87;;
29958;SDS011;16815;51.100;6.516;2022-12-29T01:51:35;2.30;;;0.80;;
29958;SDS011;16815;51.100;6.516;2022-12-29T01:54:03;2.00;;;1.03;;
29958;SDS011;16815;51.100;6.516;2022-12-29T01:56:30;1.23;;;0.90;;
29958;SDS011;16815;51.100;6.516;2022-12-29T01:59:00;4.30;;;1.30;;
29958;SDS011;16815;51.100;6.516;2022-12-29T02:01:27;2.27;;;1.10;;
29958;SDS011;16815;51.100;6.516;2022-12-29T02:03:53;1.30;;;1.00;;
29958;SDS011;16815;51.100;6.516;2022-12-29T02:07:02;2.13;;;1.00;;
29958;SDS011;16815;51.100;6.516;2022-12-29T02:09:08;5.53;;;1.50;;
29958;SDS011;16815;51.100;6.516;2022-12-29T02:11:34;1.33;;;1.10;;
29958;SDS011;16815;51.100;6.516;2022-12-29T02:14:00;2.97;;;0.87;;
29958;SDS011;16815;51.100;6.516;2022-12-29T02:19:33;1.53;;;1.20;;
29958;SDS011;16815;51.100;6.516;2022-12-29T02:22:08;1.43;;;1.13;;
29958;SDS011;16815;51.100;6.516;2022-12-29T02:35:48;1.57;;;1.00;;
29958;SDS011;16815;51.100;6.516;2022-12-29T02:37:53;4.47;;;1.23;;
29958;SDS011;16815;51.100;6.516;2022-12-29T02:40:24;0.87;;;0.87;;
29958;SDS011;16815;51.100;6.516;2022-12-29T02:45:36;1.20;;;1.10;;
29958;SDS011;16815;51.100;6.516;2022-12-29T02:48:14;2.07;;;1.10;;
29958;SDS011;16815;51.100;6.516;2022-12-29T02:50:50;1.37;;;1.10;;
29958;SDS011;16815;51.100;6.516;2022-12-29T02:53:17;1.20;;;0.73;;
29958;SDS011;16815;51.100;6.516;2022-12-29T02:56:04;1.27;;;0.90;;
29958;SDS011;16815;51.100;6.516;2022-12-29T02:58:30;1.93;;;1.00;;
29958;SDS011;16815;51.100;6.516;2022-12-29T03:01:02;1.07;;;0.90;;
29958;SDS011;16815;51.100;6.516;2022-12-29T03:03:36;3.07;;;1.10;;
29958;SDS011;16815;51.100;6.516;2022-12-29T03:09:02;2.13;;;1.13;;
29958;SDS011;16815;51.100;6.516;2022-12-29T03:11:33;2.20;;;1.00;;
29958;SDS011;16815;51.100;6.516;2022-12-29T03:14:27;0.70;;;0.70;;
29958;SDS011;16815;51.100;6.516;2022-12-29T03:17:35;1.10;;;0.90;;
29958;SDS011;16815;51.100;6.516;2022-12-29T03:20:01;1.10;;;1.07;;
29958;SDS011;16815;51.100;6.516;2022-12-29T03:22:29;2.13;;;1.00;;
29958;SDS011;16815;51.100;6.516;2022-12-29T03:24:58;1.57;;;1.10;;
29958;SDS011;16815;51.100;6.516;2022-12-29T03:27:27;2.87;;;1.00;;
29958;SDS011;16815;51.100;6.516;2022-12-29T03:29:55;1.23;;;0.80;;
29958;SDS011;16815;51.100;6.516;2022-12-29T03:32:31;1.73;;;1.07;;
29958;SDS011;16815;51.100;6.516;2022-12-29T03:34:58;2.63;;;1.00;;
29958;SDS011;16815;51.100;6.516;2022-12-29T03:37:26;1.80;;;0.90;;
29958;SDS011;16815;51.100;6.516;2022-12-29T03:39:54;1.20;;;0.90;;
29958;SDS011;16815;51.100;6.516;2022-12-29T03:42:21;1.53;;;0.90;;
29958;SDS011;16815;51.100;6.516;2022-12-29T03:44:49;1.00;;;0.90;;
29958;SDS011;16815;51.100;6.516;2022-12-29T03:47:18;1.00;;;0.70;;
29958;SDS011;16815;51.100;6.516;2022-12-29T03:49:44;0.90;;;0.90;;
29958;SDS011;16815;51.100;6.516;2022-12-29T03:52:10;1.30;;;0.97;;
29958;SDS011;16815;51.100;6.516;2022-12-29T03:54:36;0.93;;;0.73;;
29958;SDS011;16815;51.100;6.516;2022-12-29T03:57:02;3.10;;;0.90;;
29958;SDS011;16815;51.100;6.516;2022-12-29T03:59:28;1.47;;;1.00;;
29958;SDS011;16815;51.100;6.516;2022-12-29T04:01:54;1.20;;;1.10;;
29958;SDS011;16815;51.100;6.516;2022-12-29T04:04:20;0.80;;;0.80;;
29958;SDS011;16815;51.100;6.516;2022-12-29T04:06:46;1.53;;;0.90;;
29958;SDS011;16815;51.100;6.516;2022-12-29T04:09:12;1.43;;;1.30;;
29958;SDS011;16815;51.100;6.516;2022-12-29T04:11:38;2.80;;;0.90;;
29958;SDS011;16815;51.100;6.516;2022-12-29T04:14:04;2.77;;;1.03;;
29958;SDS011;16815;51.100;6.516;2022-12-29T04:16:30;1.10;;;0.80;;
29958;SDS011;16815;51.100;6.516;2022-12-29T04:18:55;5.73;;;1.10;;
29958;SDS011;16815;51.100;6.516;2022-12-29T04:21:21;1.10;;;1.00;;
29958;SDS011;16815;51.100;6.516;2022-12-29T04:23:47;3.60;;;1.07;;
29958;SDS011;16815;51.100;6.516;2022-12-29T04:26:13;3.10;;;1.40;;
29958;SDS011;16815;51.100;6.516;2022-12-29T04:28:39;4.30;;;1.00;;
29958;SDS011;16815;51.100;6.516;2022-12-29T04:31:05;1.87;;;0.90;;
29958;SDS011;16815;51.100;6.516;2022-12-29T04:33:31;2.00;;;1.07;;
29958;SDS011;16815;51.100;6.516;2022-12-29T04:35:57;1.80;;;1.00;;
29958;SDS011;16815;51.100;6.516;2022-12-29T04:38:23;2.33;;;1.07;;
29958;SDS011;16815;51.100;6.516;2022-12-29T04:40:50;2.17;;;0.80;;
29958;SDS011;16815;51.100;6.516;2022-12-29T04:43:16;4.13;;;1.13;;
29958;SDS011;16815;51.100;6.516;2022-12-29T04:45:44;3.20;;;1.20;;
29958;SDS011;16815;51.100;6.516;2022-12-29T04:48:10;2.67;;;1.00;;
29958;SDS011;16815;51.100;6.516;2022-12-29T04:50:36;1.57;;;0.90;;
29958;SDS011;16815;51.100;6.516;2022-12-29T04:53:02;2.20;;;1.10;;
29958;SDS011;16815;51.100;6.516;2022-12-29T04:55:28;3.43;;;1.20;;
29958;SDS011;16815;51.100;6.516;2022-12-29T04:57:54;4.00;;;1.60;;
29958;SDS011;16815;51.100;6.516;2022-12-29T05:00:20;2.70;;;1.20;;
29958;SDS011;16815;51.100;6.516;2022-12-29T05:02:46;4.07;;;1.10;;
29958;SDS011;16815;51.100;6.516;2022-12-29T05:05:12;1.33;;;0.93;;
29958;SDS011;16815;51.100;6.516;2022-12-29T05:07:38;2.13;;;1.13;;
29958;SDS011;16815;51.100;6.516;2022-12-29T05:10:04;1.60;;;1.00;;
29958;SDS011;16815;51.100;6.516;2022-12-29T05:12:31;2.57;;;1.10;;
29958;SDS011;16815;51.100;6.516;2022-12-29T05:14:57;2.43;;;0.97;;
29958;SDS011;16815;51.100;6.516;2022-12-29T05:17:23;6.70;;;1.30;;
29958;SDS011;16815;51.100;6.516;2022-12-29T05:19:49;2.73;;;1.00;;
29958;SDS011;16815;51.100;6.516;2022-12-29T05:22:15;3.67;;;1.37;;
29958;SDS011;16815;51.100;6.516;2022-12-29T05:24:41;4.63;;;1.50;;
29958;SDS011;16815;51.100;6.516;2022-12-29T05:27:07;5.00;;;1.53;;
29958;SDS011;16815;51.100;6.516;2022-12-29T05:29:33;2.60;;;1.17;;
29958;SDS011;16815;51.100;6.516;2022-12-29T05:31:59;3.70;;;1.40;;
29958;SDS011;16815;51.100;6.516;2022-12-29T05:34:25;1.83;;;1.00;;
29958;SDS011;16815;51.100;6.516;2022-12-29T05:36:51;4.60;;;1.23;;
29958;SDS011;16815;51.100;6.516;2022-12-29T05:39:16;3.27;;;1.10;;
29958;SDS011;16815;51.100;6.516;2022-12-29T05:41:42;3.33;;;1.23;;
29958;SDS011;16815;51.100;6.516;2022-12-29T05:44:09;2.93;;;1.30;;
29958;SDS011;16815;51.100;6.516;2022-12-29T05:46:35;3.20;;;1.20;;
29958;SDS011;16815;51.100;6.516;2022-12-29T05:49:01;2.60;;;1.20;;
29958;SDS011;16815;51.100;6.516;2022-12-29T05:51:27;2.30;;;1.07;;
29958;SDS011;16815;51.100;6.516;2022-12-29T05:53:53;2.20;;;1.13;;
29958;SDS011;16815;51.100;6.516;2022-12-29T05:56:19;3.70;;;0.97;;
29958;SDS011;16815;51.100;6.516;2022-12-29T05:58:45;1.33;;;1.10;;
29958;SDS011;16815;51.100;6.516;2022-12-29T06:01:11;3.30;;;1.20;;
29958;SDS011;16815;51.100;6.516;2022-12-29T06:03:37;1.83;;;1.00;;
29958;SDS011;16815;51.100;6.516;2022-12-29T06:06:03;3.93;;;1.13;;
29958;SDS011;16815;51.100;6.516;2022-12-29T06:08:29;2.77;;;1.30;;
29958;SDS011;16815;51.100;6.516;2022-12-29T06:10:55;6.30;;;1.20;;
29958;SDS011;16815;51.100;6.516;2022-12-29T06:13:21;1.97;;;1.00;;
29958;SDS011;16815;51.100;6.516;2022-12-29T06:15:50;3.27;;;1.03;;
29958;SDS011;16815;51.100;6.516;2022-12-29T06:18:16;1.67;;;0.90;;
29958;SDS011;16815;51.100;6.516;2022-12-29T06:20:42;3.67;;;1.30;;
29958;SDS011;16815;51.100;6.516;2022-12-29T06:23:08;2.43;;;1.10;;
29958;SDS011;16815;51.100;6.516;2022-12-29T06:25:34;6.10;;;1.37;;
29958;SDS011;16815;51.100;6.516;2022-12-29T06:28:01;3.60;;;1.07;;
29958;SDS011;16815;51.100;6.516;2022-12-29T06:30:27;2.77;;;1.40;;
29958;SDS011;16815;51.100;6.516;2022-12-29T06:32:53;1.90;;;1.30;;
29958;SDS011;16815;51.100;6.516;2022-12-29T06:35:19;2.50;;;1.17;;
29958;SDS011;16815;51.100;6.516;2022-12-29T06:37:47;3.57;;;1.40;;
29958;SDS011;16815;51.100;6.516;2022-12-29T06:40:13;5.90;;;1.13;;
29958;SDS011;16815;51.100;6.516;2022-12-29T06:42:39;4.30;;;1.40;;
29958;SDS011;16815;51.100;6.516;2022-12-29T06:45:05;2.27;;;1.30;;
29958;SDS011;16815;51.100;6.516;2022-12-29T06:47:32;5.20;;;1.40;;
29958;SDS011;16815;51.100;6.516;2022-12-29T06:50:01;5.20;;;1.20;;
29958;SDS011;16815;51.100;6.516;2022-12-29T06:52:28;4.37;;;1.30;;
29958;SDS011;16815;51.100;6.516;2022-12-29T06:54:54;3.30;;;1.20;;
29958;SDS011;16815;51.100;6.516;2022-12-29T06:57:20;2.00;;;1.13;;
29958;SDS011;16815;51.100;6.516;2022-12-29T06:59:46;5.53;;;1.50;;
29958;SDS011;16815;51.100;6.516;2022-12-29T07:02:12;2.83;;;1.20;;
29958;SDS011;16815;51.100;6.516;2022-12-29T07:04:43;4.47;;;1.20;;
29958;SDS011;16815;51.100;6.516;2022-12-29T07:07:09;2.50;;;1.37;;
29958;SDS011;16815;51.100;6.516;2022-12-29T07:09:35;3.27;;;1.13;;
29958;SDS011;16815;51.100;6.516;2022-12-29T07:12:00;2.67;;;1.27;;
29958;SDS011;16815;51.100;6.516;2022-12-29T07:14:26;5.80;;;1.40;;
29958;SDS011;16815;51.100;6.516;2022-12-29T07:16:52;2.73;;;1.40;;
29958;SDS011;16815;51.100;6.516;2022-12-29T07:19:19;4.07;;;1.17;;
29958;SDS011;16815;51.100;6.516;2022-12-29T07:21:45;3.13;;;1.60;;
29958;SDS011;16815;51.100;6.516;2022-12-29T07:24:11;3.13;;;1.00;;
29958;SDS011;16815;51.100;6.516;2022-12-29T07:26:37;6.63;;;1.20;;
29958;SDS011;16815;51.100;6.516;2022-12-29T07:29:03;3.87;;;1.40;;
29958;SDS011;16815;51.100;6.516;2022-12-29T07:31:29;2.93;;;1.23;;
29958;SDS011;16815;51.100;6.516;2022-12-29T07:33:55;2.53;;;1.30;;
29958;SDS011;16815;51.100;6.516;2022-12-29T07:36:21;2.43;;;1.40;;
29958;SDS011;16815;51.100;6.516;2022-12-29T07:38:47;3.43;;;1.40;;
29958;SDS011;16815;51.100;6.516;2022-12-29T07:41:13;3.30;;;1.43;;
29958;SDS011;16815;51.100;6.516;2022-12-29T07:43:39;4.60;;;1.50;;
29958;SDS011;16815;51.100;6.516;2022-12-29T07:46:05;4.70;;;1.50;;
29958;SDS011;16815;51.100;6.516;2022-12-29T07:48:31;3.70;;;1.37;;
29958;SDS011;16815;51.100;6.516;2022-12-29T07:51:00;5.70;;;1.60;;
29958;SDS011;16815;51.100;6.516;2022-12-29T07:53:26;2.73;;;1.50;;
29958;SDS011;16815;51.100;6.516;2022-12-29T07:55:52;5.83;;;2.00;;
29958;SDS011;16815;51.100;6.516;2022-12-29T07:58:18;5.13;;;1.43;;
29958;SDS011;16815;51.100;6.516;2022-12-29T08:00:44;6.00;;;1.40;;
29958;SDS011;16815;51.100;6.516;2022-12-29T08:03:09;4.67;;;1.53;;
29958;SDS011;16815;51.100;6.516;2022-12-29T08:05:35;8.07;;;1.47;;
29958;SDS011;16815;51.100;6.516;2022-12-29T08:08:01;3.60;;;1.50;;
29958;SDS011;16815;51.100;6.516;2022-12-29T08:10:28;5.23;;;1.90;;
29958;SDS011;16815;51.100;6.516;2022-12-29T08:12:54;5.93;;;2.17;;
29958;SDS011;16815;51.100;6.516;2022-12-29T08:15:20;5.07;;;1.73;;
29958;SDS011;16815;51.100;6.516;2022-12-29T08:17:45;7.63;;;1.80;;
29958;SDS011;16815;51.100;6.516;2022-12-29T08:20:11;6.80;;;1.83;;
29958;SDS011;16815;51.100;6.516;2022-12-29T08:22:37;2.37;;;1.53;;
29958;SDS011;16815;51.100;6.516;2022-12-29T08:25:03;6.63;;;2.77;;
29958;SDS011;16815;51.100;6.516;2022-12-29T08:27:29;5.23;;;1.50;;
29958;SDS011;16815;51.100;6.516;2022-12-29T08:29:55;6.53;;;1.60;;
29958;SDS011;16815;51.100;6.516;2022-12-29T08:32:21;5.87;;;1.80;;
29958;SDS011;16815;51.100;6.516;2022-12-29T08:34:47;5.07;;;1.70;;
29958;SDS011;16815;51.100;6.516;2022-12-29T08:37:13;3.50;;;1.80;;
29958;SDS011;16815;51.100;6.516;2022-12-29T08:39:39;5.60;;;1.70;;
29958;SDS011;16815;51.100;6.516;2022-12-29T08:42:05;7.23;;;2.23;;
29958;SDS011;16815;51.100;6.516;2022-12-29T08:44:31;8.17;;;1.90;;
29958;SDS011;16815;51.100;6.516;2022-12-29T08:46:57;10.90;;;2.67;;
29958;SDS011;16815;51.100;6.516;2022-12-29T08:49:23;7.20;;;1.90;;
29958;SDS011;16815;51.100;6.516;2022-12-29T08:51:49;5.17;;;1.67;;
29958;SDS011;16815;51.100;6.516;2022-12-29T08:54:15;9.57;;;2.40;;
29958;SDS011;16815;51.100;6.516;2022-12-29T08:56:41;6.43;;;1.83;;
29958;SDS011;16815;51.100;6.516;2022-12-29T08:59:06;5.07;;;1.60;;
29958;SDS011;16815;51.100;6.516;2022-12-29T09:01:32;5.67;;;1.73;;
29958;SDS011;16815;51.100;6.516;2022-12-29T09:04:01;7.80;;;2.10;;
29958;SDS011;16815;51.100;6.516;2022-12-29T09:06:27;5.67;;;1.97;;
29958;SDS011;16815;51.100;6.516;2022-12-29T09:08:53;6.90;;;1.70;;
29958;SDS011;16815;51.100;6.516;2022-12-29T09:11:22;8.27;;;2.00;;
29958;SDS011;16815;51.100;6.516;2022-12-29T09:13:48;4.67;;;1.67;;
29958;SDS011;16815;51.100;6.516;2022-12-29T09:16:14;4.90;;;1.77;;
29958;SDS011;16815;51.100;6.516;2022-12-29T09:18:40;8.20;;;1.93;;
29958;SDS011;16815;51.100;6.516;2022-12-29T09:21:06;5.50;;;1.70;;
29958;SDS011;16815;51.100;6.516;2022-12-29T09:23:33;6.43;;;1.50;;
29958;SDS011;16815;51.100;6.516;2022-12-29T09:25:59;7.50;;;1.73;;
29958;SDS011;16815;51.100;6.516;2022-12-29T09:28:25;5.30;;;2.10;;
29958;SDS011;16815;51.100;6.516;2022-12-29T09:30:51;6.97;;;1.73;;
29958;SDS011;16815;51.100;6.516;2022-12-29T09:33:17;6.90;;;1.80;;
29958;SDS011;16815;51.100;6.516;2022-12-29T09:35:44;6.43;;;2.10;;
29958;SDS011;16815;51.100;6.516;2022-12-29T09:38:10;12.90;;;2.83;;
29958;SDS011;16815;51.100;6.516;2022-12-29T09:40:37;6.40;;;1.90;;
29958;SDS011;16815;51.100;6.516;2022-12-29T09:45:32;8.03;;;1.80;;
29958;SDS011;16815;51.100;6.516;2022-12-29T09:48:00;6.97;;;1.80;;
29958;SDS011;16815;51.100;6.516;2022-12-29T09:50:30;8.43;;;2.00;;
29958;SDS011;16815;51.100;6.516;2022-12-29T09:55:31;6.53;;;1.83;;
29958;SDS011;16815;51.100;6.516;2022-12-29T09:58:00;6.73;;;1.77;;
29958;SDS011;16815;51.100;6.516;2022-12-29T10:00:33;7.83;;;2.33;;
29958;SDS011;16815;51.100;6.516;2022-12-29T10:03:20;10.17;;;2.50;;
29958;SDS011;16815;51.100;6.516;2022-12-29T10:08:27;9.03;;;2.07;;
29958;SDS011;16815;51.100;6.516;2022-12-29T10:10:56;12.10;;;2.43;;
29958;SDS011;16815;51.100;6.516;2022-12-29T10:16:14;10.70;;;2.30;;
29958;SDS011;16815;51.100;6.516;2022-12-29T10:18:44;13.73;;;2.40;;
29958;SDS011;16815;51.100;6.516;2022-12-29T10:23:40;13.80;;;2.23;;
29958;SDS011;16815;51.100;6.516;2022-12-29T10:26:13;9.47;;;2.20;;
29958;SDS011;16815;51.100;6.516;2022-12-29T10:31:08;9.50;;;2.50;;
29958;SDS011;16815;51.100;6.516;2022-12-29T10:33:36;8.53;;;2.20;;
29958;SDS011;16815;51.100;6.516;2022-12-29T10:36:16;9.70;;;2.33;;
29958;SDS011;16815;51.100;6.516;2022-12-29T10:41:30;8.30;;;2.20;;
29958;SDS011;16815;51.100;6.516;2022-12-29T10:43:59;15.80;;;2.67;;
29958;SDS011;16815;51.100;6.516;2022-12-29T10:46:30;13.87;;;2.33;;
29958;SDS011;16815;51.100;6.516;2022-12-29T10:48:58;12.57;;;2.57;;
29958;SDS011;16815;51.100;6.516;2022-12-29T10:51:32;12.50;;;2.90;;
29958;SDS011;16815;51.100;6.516;2022-12-29T10:56:30;15.23;;;2.23;;
29958;SDS011;16815;51.100;6.516;2022-12-29T10:58:59;15.33;;;3.43;;
29958;SDS011;16815;51.100;6.516;2022-12-29T11:01:30;20.43;;;3.87;;
29958;SDS011;16815;51.100;6.516;2022-12-29T11:04:07;12.27;;;3.10;;
29958;SDS011;16815;51.100;6.516;2022-12-29T11:06:36;14.47;;;2.83;;
29958;SDS011;16815;51.100;6.516;2022-12-29T11:09:16;17.63;;;3.07;;
29958;SDS011;16815;51.100;6.516;2022-12-29T11:11:45;13.10;;;2.53;;
29958;SDS011;16815;51.100;6.516;2022-12-29T11:16:38;13.23;;;3.13;;
29958;SDS011;16815;51.100;6.516;2022-12-29T11:19:10;12.60;;;2.87;;
29958;SDS011;16815;51.100;6.516;2022-12-29T11:21:44;26.73;;;3.33;;
29958;SDS011;16815;51.100;6.516;2022-12-29T11:24:21;27.80;;;3.30;;
29958;SDS011;16815;51.100;6.516;2022-12-29T11:26:49;21.07;;;3.43;;
29958;SDS011;16815;51.100;6.516;2022-12-29T11:31:44;18.90;;;3.17;;
29958;SDS011;16815;51.100;6.516;2022-12-29T11:34:25;21.17;;;2.83;;
29958;SDS011;16815;51.100;6.516;2022-12-29T11:36:52;12.47;;;2.67;;
29958;SDS011;16815;51.100;6.516;2022-12-29T11:42:00;25.97;;;3.20;;
29958;SDS011;16815;51.100;6.516;2022-12-29T11:44:27;13.23;;;2.47;;
29958;SDS011;16815;51.100;6.516;2022-12-29T11:46:57;18.80;;;3.27;;
29958;SDS011;16815;51.100;6.516;2022-12-29T11:49:24;10.27;;;2.00;;
29958;SDS011;16815;51.100;6.516;2022-12-29T11:51:51;15.23;;;2.77;;
29958;SDS011;16815;51.100;6.516;2022-12-29T11:54:22;14.30;;;3.00;;
29958;SDS011;16815;51.100;6.516;2022-12-29T11:56:49;14.33;;;3.07;;
29958;SDS011;16815;51.100;6.516;2022-12-29T12:02:03;19.60;;;2.40;;
29958;SDS011;16815;51.100;6.516;2022-12-29T12:04:35;13.43;;;3.00;;
29958;SDS011;16815;51.100;6.516;2022-12-29T12:07:13;17.03;;;3.07;;
29958;SDS011;16815;51.100;6.516;2022-12-29T12:09:51;13.33;;;2.80;;
29958;SDS011;16815;51.100;6.516;2022-12-29T12:12:24;16.83;;;2.83;;
29958;SDS011;16815;51.100;6.516;2022-12-29T12:14:57;11.03;;;2.60;;
29958;SDS011;16815;51.100;6.516;2022-12-29T12:17:26;15.03;;;2.37;;
29958;SDS011;16815;51.100;6.516;2022-12-29T12:20:04;15.23;;;2.90;;
29958;SDS011;16815;51.100;6.516;2022-12-29T12:22:31;14.20;;;2.60;;
29958;SDS011;16815;51.100;6.516;2022-12-29T12:25:09;27.30;;;3.33;;
29958;SDS011;16815;51.100;6.516;2022-12-29T12:27:57;12.93;;;2.50;;
29958;SDS011;16815;51.100;6.516;2022-12-29T12:30:26;8.67;;;2.13;;
29958;SDS011;16815;51.100;6.516;2022-12-29T12:32:56;16.30;;;3.00;;
29958;SDS011;16815;51.100;6.516;2022-12-29T12:43:39;16.17;;;2.60;;
29958;SDS011;16815;51.100;6.516;2022-12-29T12:51:20;5.37;;;2.23;;
29958;SDS011;16815;51.100;6.516;2022-12-29T12:54:05;19.93;;;2.33;;
29958;SDS011;16815;51.100;6.516;2022-12-29T13:09:34;17.87;;;2.67;;
29958;SDS011;16815;51.100;6.516;2022-12-29T13:12:06;15.43;;;2.10;;
29958;SDS011;16815;51.100;6.516;2022-12-29T13:20:33;11.27;;;2.70;;
29958;SDS011;16815;51.100;6.516;2022-12-29T13:23:07;13.13;;;2.47;;
29958;SDS011;16815;51.100;6.516;2022-12-29T13:25:49;15.37;;;2.10;;
29958;SDS011;16815;51.100;6.516;2022-12-29T13:30:50;15.17;;;3.13;;
29958;SDS011;16815;51.100;6.516;2022-12-29T13:36:05;7.30;;;1.83;;
29958;SDS011;16815;51.100;6.516;2022-12-29T13:43:56;9.67;;;2.23;;
29958;SDS011;16815;51.100;6.516;2022-12-29T13:46:27;14.00;;;2.20;;
29958;SDS011;16815;51.100;6.516;2022-12-29T13:49:01;8.07;;;2.37;;
29958;SDS011;16815;51.100;6.516;2022-12-29T13:51:30;11.93;;;2.47;;
29958;SDS011;16815;51.100;6.516;2022-12-29T13:54:00;8.80;;;2.00;;
29958;SDS011;16815;51.100;6.516;2022-12-29T13:59:09;10.70;;;2.23;;
29958;SDS011;16815;51.100;6.516;2022-12-29T14:01:39;8.67;;;2.30;;
29958;SDS011;16815;51.100;6.516;2022-12-29T14:04:12;7.47;;;2.40;;
29958;SDS011;16815;51.100;6.516;2022-12-29T14:06:38;16.83;;;2.00;;
29958;SDS011;16815;51.100;6.516;2022-12-29T14:09:06;2.73;;;1.40;;
29958;SDS011;16815;51.100;6.516;2022-12-29T14:11:36;6.07;;;1.73;;
29958;SDS011;16815;51.100;6.516;2022-12-29T14:14:18;11.80;;;2.37;;
29958;SDS011;16815;51.100;6.516;2022-12-29T14:17:10;8.33;;;2.33;;
29958;SDS011;16815;51.100;6.516;2022-12-29T14:19:40;6.20;;;1.40;;
29958;SDS011;16815;51.100;6.516;2022-12-29T14:22:07;7.83;;;2.00;;
29958;SDS011;16815;51.100;6.516;2022-12-29T14:29:47;7.07;;;1.87;;
29958;SDS011;16815;51.100;6.516;2022-12-29T14:34:52;12.70;;;2.30;;
29958;SDS011;16815;51.100;6.516;2022-12-29T14:37:25;10.73;;;2.80;;
29958;SDS011;16815;51.100;6.516;2022-12-29T14:40:25;8.17;;;2.10;;
29958;SDS011;16815;51.100;6.516;2022-12-29T14:42:48;10.13;;;2.73;;
29958;SDS011;16815;51.100;6.516;2022-12-29T14:47:40;4.73;;;1.93;;
29958;SDS011;16815;51.100;6.516;2022-12-29T14:50:08;6.17;;;1.97;;
29958;SDS011;16815;51.100;6.516;2022-12-29T14:53:40;6.87;;;2.10;;
29958;SDS011;16815;51.100;6.516;2022-12-29T14:55:47;11.17;;;2.27;;
29958;SDS011;16815;51.100;6.516;2022-12-29T14:58:21;5.63;;;2.37;;
29958;SDS011;16815;51.100;6.516;2022-12-29T15:00:48;6.50;;;1.87;;
29958;SDS011;16815;51.100;6.516;2022-12-29T15:05:41;6.63;;;2.17;;
29958;SDS011;16815;51.100;6.516;2022-12-29T15:08:08;12.23;;;2.30;;
29958;SDS011;16815;51.100;6.516;2022-12-29T15:10:37;6.57;;;1.87;;
29958;SDS011;16815;51.100;6.516;2022-12-29T15:13:05;7.90;;;1.80;;
29958;SDS011;16815;51.100;6.516;2022-12-29T15:15:36;5.80;;;1.60;;
29958;SDS011;16815;51.100;6.516;2022-12-29T15:18:15;5.47;;;1.80;;
29958;SDS011;16815;51.100;6.516;2022-12-29T15:20:49;5.73;;;1.70;;
29958;SDS011;16815;51.100;6.516;2022-12-29T15:23:16;7.50;;;2.30;;
29958;SDS011;16815;51.100;6.516;2022-12-29T15:25:46;4.23;;;1.83;;
29958;SDS011;16815;51.100;6.516;2022-12-29T15:28:13;6.20;;;1.63;;
29958;SDS011;16815;51.100;6.516;2022-12-29T15:30:49;7.50;;;2.03;;
29958;SDS011;16815;51.100;6.516;2022-12-29T15:33:19;9.50;;;2.00;;
29958;SDS011;16815;51.100;6.516;2022-12-29T15:35:48;7.70;;;2.20;;
29958;SDS011;16815;51.100;6.516;2022-12-29T15:38:20;8.80;;;2.00;;
29958;SDS011;16815;51.100;6.516;2022-12-29T15:40:48;6.53;;;1.90;;
29958;SDS011;16815;51.100;6.516;2022-12-29T15:43:23;6.53;;;1.93;;
29958;SDS011;16815;51.100;6.516;2022-12-29T15:45:51;5.03;;;2.00;;
29958;SDS011;16815;51.100;6.516;2022-12-29T15:48:19;11.93;;;2.57;;
29958;SDS011;16815;51.100;6.516;2022-12-29T15:50:46;7.67;;;2.40;;
29958;SDS011;16815;51.100;6.516;2022-12-29T15:53:18;10.53;;;2.40;;
29958;SDS011;16815;51.100;6.516;2022-12-29T15:55:48;6.97;;;2.60;;
29958;SDS011;16815;51.100;6.516;2022-12-29T15:58:19;9.43;;;2.70;;
29958;SDS011;16815;51.100;6.516;2022-12-29T16:00:55;10.03;;;2.50;;
29958;SDS011;16815;51.100;6.516;2022-12-29T16:03:22;8.90;;;2.20;;
29958;SDS011;16815;51.100;6.516;2022-12-29T16:05:51;9.07;;;2.37;;
29958;SDS011;16815;51.100;6.516;2022-12-29T16:08:27;10.43;;;2.43;;
29958;SDS011;16815;51.100;6.516;2022-12-29T16:10:54;11.07;;;2.30;;
29958;SDS011;16815;51.100;6.516;2022-12-29T16:13:38;9.33;;;2.27;;
29958;SDS011;16815;51.100;6.516;2022-12-29T16:16:09;7.37;;;2.63;;
29958;SDS011;16815;51.100;6.516;2022-12-29T16:18:37;6.50;;;2.23;;
29958;SDS011;16815;51.100;6.516;2022-12-29T16:21:04;15.10;;;2.70;;
29958;SDS011;16815;51.100;6.516;2022-12-29T16:23:31;6.73;;;1.87;;
29958;SDS011;16815;51.100;6.516;2022-12-29T16:25:57;8.97;;;2.20;;
29958;SDS011;16815;51.100;6.516;2022-12-29T16:28:57;8.53;;;1.93;;
29958;SDS011;16815;51.100;6.516;2022-12-29T16:33:58;10.03;;;2.73;;
29958;SDS011;16815;51.100;6.516;2022-12-29T16:36:28;9.93;;;2.40;;
29958;SDS011;16815;51.100;6.516;2022-12-29T16:41:39;6.40;;;1.87;;
29958;SDS011;16815;51.100;6.516;2022-12-29T16:44:11;5.50;;;1.90;;
29958;SDS011;16815;51.100;6.516;2022-12-29T16:46:40;8.00;;;2.30;;
29958;SDS011;16815;51.100;6.516;2022-12-29T16:49:14;6.77;;;2.07;;
29958;SDS011;16815;51.100;6.516;2022-12-29T16:51:41;9.10;;;2.17;;
29958;SDS011;16815;51.100;6.516;2022-12-29T16:54:13;9.53;;;2.70;;